createdAt,value
2022-12-03T00:00:53.423Z,0.20
2022-12-03T00:03:45.267Z,0.20
2022-12-03T00:06:25.666Z,0.20
2022-12-03T00:09:09.858Z,0.10
2022-12-03T00:11:53.718Z,0.10
2022-12-03T00:14:53.255Z,0.20
2022-12-03T00:20:39.833Z,0.20
2022-12-03T00:23:11.150Z,0.10
2022-12-03T00:25:41.912Z,0.20
2022-12-03T00:28:13.173Z,0.20
2022-12-03T00:31:10.022Z,0.20
2022-12-03T00:33:51.684Z,0.30
2022-12-03T00:36:29.247Z,0.10
2022-12-03T00:39:01.822Z,0.10
2022-12-03T00:41:39.836Z,0.20
2022-12-03T00:44:13.866Z,0.10
2022-12-03T00:46:52.824Z,0.10
2022-12-03T00:49:23.337Z,0.20
2022-12-03T00:51:54.054Z,0.40
2022-12-03T00:54:32.207Z,0.20
2022-12-03T00:57:08.406Z,0.20
2022-12-03T00:59:49.873Z,0.10
2022-12-03T01:02:21.368Z,0.10
2022-12-03T01:04:55.314Z,0.10
2022-12-03T01:07:36.747Z,0.10
2022-12-03T01:10:16.802Z,0.30
2022-12-03T01:12:50.680Z,0.10
2022-12-03T01:15:25.740Z,0.10
2022-12-03T01:18:01.167Z,0.10
2022-12-03T01:20:39.045Z,0.10
2022-12-03T01:23:07.473Z,0.10
2022-12-03T01:25:59.991Z,0.10
2022-12-03T01:28:46.342Z,0.10
2022-12-03T01:31:32.490Z,0.10
2022-12-03T01:34:09.816Z,0.10
2022-12-03T01:36:55.669Z,0.20
2022-12-03T01:39:41.863Z,0.10
2022-12-03T01:42:19.883Z,0.10
2022-12-03T01:44:53.344Z,0.10
2022-12-03T01:47:31.496Z,0.10
2022-12-03T01:50:11.356Z,0.10
2022-12-03T01:52:45.757Z,0.10
2022-12-03T01:55:35.927Z,0.10
2022-12-03T01:58:19.872Z,0.10
2022-12-03T02:00:55.940Z,0.10
2022-12-03T02:03:31.710Z,0.10
2022-12-03T02:06:01.854Z,0.60
2022-12-03T02:08:56.780Z,0.10
2022-12-03T02:11:48.426Z,0.10
2022-12-03T02:14:24.695Z,0.10
2022-12-03T02:17:04.879Z,0.20
2022-12-03T02:22:36.493Z,0.10
2022-12-03T02:25:27.528Z,0.20
2022-12-03T02:28:17.105Z,0.10
2022-12-03T02:30:49.893Z,0.10
2022-12-03T02:33:35.390Z,0.30
2022-12-03T02:36:21.699Z,0.20
2022-12-03T02:38:57.423Z,0.20
2022-12-03T02:41:45.374Z,0.20
2022-12-03T02:44:21.121Z,0.20
2022-12-03T02:46:50.429Z,0.10
2022-12-03T02:49:26.813Z,0.10
2022-12-03T02:51:59.974Z,0.10
2022-12-03T02:54:37.734Z,0.10
2022-12-03T03:00:05.230Z,0.10
2022-12-03T03:02:45.666Z,0.10
2022-12-03T03:05:23.445Z,0.10
2022-12-03T03:08:04.117Z,0.10
2022-12-03T03:10:35.804Z,0.10
2022-12-03T03:13:07.396Z,0.20
2022-12-03T03:15:54.497Z,0.00
2022-12-03T03:21:31.969Z,0.10
2022-12-03T03:24:04.749Z,0.10
2022-12-03T03:26:37.894Z,0.10
2022-12-03T03:29:19.494Z,0.10
2022-12-03T03:31:56.064Z,0.00
2022-12-03T03:34:27.203Z,0.00
2022-12-03T03:37:18.022Z,0.00
2022-12-03T03:39:51.651Z,0.00
2022-12-03T03:42:25.105Z,0.00
2022-12-03T03:44:56.195Z,0.10
2022-12-03T03:47:43.905Z,0.00
2022-12-03T03:50:20.599Z,0.00
2022-12-03T03:52:55.002Z,-0.10
2022-12-03T03:55:30.907Z,0.10
2022-12-03T03:58:17.534Z,-0.10
2022-12-03T04:00:58.652Z,0.00
2022-12-03T04:03:50.516Z,0.30
2022-12-03T04:06:22.941Z,0.00
2022-12-03T04:09:00.154Z,-0.10
2022-12-03T04:11:49.351Z,-0.10
2022-12-03T04:14:21.379Z,-0.10
2022-12-03T04:16:51.779Z,-0.10
2022-12-03T04:19:32.080Z,-0.10
2022-12-03T04:22:27.832Z,-0.10
2022-12-03T04:25:23.911Z,-0.10
2022-12-03T04:28:16.427Z,-0.10
2022-12-03T04:30:46.107Z,-0.20
2022-12-03T04:33:32.204Z,-0.20
2022-12-03T04:36:08.183Z,-0.20
2022-12-03T04:38:53.960Z,-0.20
2022-12-03T04:41:27.701Z,-0.20
2022-12-03T04:44:17.019Z,-0.20
2022-12-03T04:46:53.227Z,0.60
2022-12-03T04:49:30.416Z,-0.30
2022-12-03T04:52:04.933Z,-0.30
2022-12-03T04:55:13.888Z,-0.20
2022-12-03T04:57:55.118Z,-0.30
2022-12-03T05:00:30.235Z,-0.20
2022-12-03T05:03:06.914Z,-0.20
2022-12-03T05:05:39.930Z,-0.20
2022-12-03T05:08:15.625Z,-0.20
2022-12-03T05:11:23.714Z,-0.20
2022-12-03T05:14:04.563Z,-0.20
2022-12-03T05:16:53.643Z,-0.30
2022-12-03T05:19:48.360Z,-0.30
2022-12-03T05:22:21.321Z,-0.20
2022-12-03T05:24:57.224Z,-0.20
2022-12-03T05:27:32.026Z,-0.20
2022-12-03T05:30:19.901Z,-0.20
2022-12-03T05:32:58.581Z,-0.20
2022-12-03T05:35:28.949Z,-0.20
2022-12-03T05:38:00.338Z,-0.20
2022-12-03T05:40:42.607Z,-0.30
2022-12-03T05:43:26.696Z,-0.30
2022-12-03T05:46:02.157Z,-0.30
2022-12-03T05:48:36.748Z,-0.30
2022-12-03T05:51:24.532Z,-0.30
2022-12-03T05:53:55.946Z,-0.30
2022-12-03T05:56:28.625Z,-0.20
2022-12-03T05:59:23.815Z,-0.20
2022-12-03T06:02:00.493Z,-0.20
2022-12-03T06:04:37.835Z,-0.30
2022-12-03T06:07:24.549Z,-0.20
2022-12-03T06:09:58.586Z,-0.20
2022-12-03T06:12:41.730Z,-0.20
2022-12-03T06:15:31.138Z,-0.20
2022-12-03T06:18:05.918Z,-0.20
2022-12-03T06:20:51.853Z,-0.10
2022-12-03T06:23:25.948Z,-0.10
2022-12-03T06:26:10.356Z,-0.20
2022-12-03T06:28:39.351Z,-0.20
2022-12-03T06:31:20.509Z,0.50
2022-12-03T06:34:05.659Z,-0.20
2022-12-03T06:36:47.731Z,-0.20
2022-12-03T06:39:21.430Z,-0.20
2022-12-03T06:41:54.999Z,0.00
2022-12-03T06:44:41.097Z,-0.10
2022-12-03T06:47:44.834Z,-0.10
2022-12-03T06:50:20.128Z,-0.20
2022-12-03T06:53:02.489Z,-0.10
2022-12-03T06:58:37.887Z,-0.10
2022-12-03T07:01:11.720Z,0.10
2022-12-03T07:03:53.089Z,0.00
2022-12-03T07:06:58.383Z,0.00
2022-12-03T07:09:57.259Z,0.00
2022-12-03T07:12:49.568Z,0.10
2022-12-03T07:15:33.159Z,0.10
2022-12-03T07:18:25.817Z,0.00
2022-12-03T07:21:09.641Z,0.00
2022-12-03T07:24:03.989Z,0.00
2022-12-03T07:26:42.895Z,0.00
2022-12-03T07:29:41.445Z,-0.10
2022-12-03T07:32:19.840Z,-0.10
2022-12-03T07:37:52.451Z,0.00
2022-12-03T07:46:22.582Z,0.00
2022-12-03T07:48:58.565Z,0.00
2022-12-03T07:51:32.388Z,0.00
2022-12-03T07:54:20.029Z,0.00
2022-12-03T07:57:10.320Z,0.00
2022-12-03T07:59:46.471Z,0.00
2022-12-03T08:02:32.810Z,0.00
2022-12-03T08:08:07.577Z,0.00
2022-12-03T08:13:30.783Z,0.10
2022-12-03T08:16:41.340Z,0.10
2022-12-03T08:19:28.891Z,0.10
2022-12-03T08:22:09.091Z,0.00
2022-12-03T08:24:43.972Z,0.10
2022-12-03T08:30:14.819Z,0.10
2022-12-03T08:32:49.136Z,0.20
2022-12-03T08:35:32.447Z,0.20
2022-12-03T08:38:20.768Z,0.10
2022-12-03T08:40:51.656Z,0.10
2022-12-03T08:43:23.746Z,0.10
2022-12-03T08:46:21.251Z,0.10
2022-12-03T08:49:33.807Z,0.60
2022-12-03T08:52:25.607Z,0.30
2022-12-03T08:55:11.018Z,0.30
2022-12-03T08:57:57.418Z,0.30
2022-12-03T09:00:31.289Z,0.30
2022-12-03T09:03:15.567Z,0.30
2022-12-03T09:05:50.763Z,0.30
2022-12-03T09:08:26.369Z,0.30
2022-12-03T09:10:57.878Z,0.40
2022-12-03T09:14:03.349Z,0.30
2022-12-03T09:16:35.719Z,0.30
2022-12-03T09:19:24.200Z,0.20
2022-12-03T09:22:01.792Z,0.30
2022-12-03T09:24:53.971Z,0.30
2022-12-03T09:27:30.039Z,0.20
2022-12-03T09:30:37.104Z,0.60
2022-12-03T09:33:31.077Z,0.30
2022-12-03T09:36:22.227Z,0.30
2022-12-03T09:39:05.467Z,0.30
2022-12-03T09:42:16.978Z,0.30
2022-12-03T09:45:02.736Z,0.30
2022-12-03T09:47:48.017Z,0.30
2022-12-03T09:50:26.219Z,0.30
2022-12-03T09:53:08.539Z,0.30
2022-12-03T09:55:41.890Z,0.40
2022-12-03T10:01:30.077Z,0.40
2022-12-03T10:04:09.643Z,0.40
2022-12-03T10:06:48.301Z,0.40
2022-12-03T10:12:42.846Z,0.60
2022-12-03T10:15:20.479Z,0.70
2022-12-03T10:21:13.903Z,0.80
2022-12-03T10:23:50.773Z,0.80
2022-12-03T10:26:41.417Z,0.70
2022-12-03T10:29:33.611Z,0.80
2022-12-03T10:32:36.115Z,0.80
2022-12-03T10:35:20.116Z,0.80
2022-12-03T10:38:06.037Z,0.80
2022-12-03T10:40:46.778Z,0.80
2022-12-03T10:43:51.309Z,0.70
2022-12-03T10:46:24.916Z,0.80
2022-12-03T10:49:13.999Z,0.80
2022-12-03T10:51:52.446Z,0.90
2022-12-03T10:54:43.112Z,1.10
2022-12-03T11:01:08.627Z,1.00
2022-12-03T11:04:07.298Z,1.10
2022-12-03T11:07:01.578Z,0.90
2022-12-03T11:09:47.860Z,0.90
2022-12-03T11:12:29.074Z,1.00
2022-12-03T11:15:08.438Z,1.00
2022-12-03T11:17:53.512Z,1.10
2022-12-03T11:20:55.421Z,1.00
2022-12-03T11:23:54.790Z,1.00
2022-12-03T11:26:51.098Z,1.00
2022-12-03T11:29:47.654Z,0.90
2022-12-03T11:32:50.468Z,0.90
2022-12-03T11:36:03.612Z,0.90
2022-12-03T11:42:12.377Z,0.90
2022-12-03T11:44:55.628Z,0.90
2022-12-03T11:47:40.703Z,1.00
2022-12-03T11:50:23.899Z,1.00
2022-12-03T11:53:13.973Z,1.00
2022-12-03T11:56:12.050Z,1.00
2022-12-03T11:59:00.526Z,1.00
2022-12-03T12:01:51.411Z,1.10
2022-12-03T12:04:43.746Z,1.00
2022-12-03T12:07:50.254Z,1.00
2022-12-03T12:10:36.220Z,1.00
2022-12-03T12:13:27.477Z,1.00
2022-12-03T12:16:15.638Z,1.00
2022-12-03T12:22:04.554Z,1.00
2022-12-03T12:25:03.118Z,1.00
2022-12-03T12:27:41.860Z,1.00
2022-12-03T12:30:36.699Z,1.00
2022-12-03T12:33:24.537Z,1.00
2022-12-03T12:36:02.629Z,1.00
2022-12-03T12:38:45.182Z,1.00
2022-12-03T12:41:20.688Z,1.00
2022-12-03T12:44:07.899Z,1.00
2022-12-03T12:46:48.634Z,1.00
2022-12-03T12:49:40.062Z,1.00
2022-12-03T12:55:13.504Z,1.00
2022-12-03T12:57:45.179Z,1.00
2022-12-03T13:00:17.509Z,0.90
2022-12-03T13:02:51.308Z,0.80
2022-12-03T13:05:24.737Z,0.80
2022-12-03T13:08:10.370Z,0.90
2022-12-03T13:10:46.649Z,0.80
2022-12-03T13:13:47.906Z,0.80
2022-12-03T13:22:47.889Z,0.80
2022-12-03T13:28:33.989Z,0.90
2022-12-03T13:31:34.271Z,0.90
2022-12-03T13:37:18.458Z,0.90
2022-12-03T13:39:53.414Z,0.90
2022-12-03T13:42:48.222Z,0.90
2022-12-03T13:45:50.423Z,1.00
2022-12-03T13:48:38.461Z,1.10
2022-12-03T13:51:23.127Z,1.10
2022-12-03T13:54:06.466Z,1.10
2022-12-03T13:56:42.666Z,1.00
2022-12-03T13:59:35.603Z,1.00
2022-12-03T14:02:17.497Z,1.00
2022-12-03T14:05:00.024Z,1.00
2022-12-03T14:07:37.587Z,1.10
2022-12-03T14:10:20.026Z,1.10
2022-12-03T14:12:53.194Z,1.10
2022-12-03T14:15:30.074Z,1.10
2022-12-03T14:18:15.146Z,1.10
2022-12-03T14:20:58.799Z,1.10
2022-12-03T14:26:28.860Z,1.10
2022-12-03T14:29:09.010Z,1.00
2022-12-03T14:31:57.129Z,0.90
2022-12-03T14:34:45.817Z,0.90
2022-12-03T14:37:18.790Z,0.80
2022-12-03T14:40:01.157Z,0.80
2022-12-03T14:42:40.299Z,0.80
2022-12-03T14:45:32.353Z,0.80
2022-12-03T14:48:04.378Z,0.80
2022-12-03T14:53:35.069Z,0.80
2022-12-03T14:56:12.877Z,0.80
2022-12-03T14:58:43.580Z,0.90
2022-12-03T15:01:12.888Z,0.90
2022-12-03T15:04:05.177Z,0.90
2022-12-03T15:06:42.221Z,1.00
2022-12-03T15:09:14.933Z,0.90
2022-12-03T15:12:03.045Z,0.90
2022-12-03T15:14:47.176Z,0.90
2022-12-03T15:17:18.744Z,0.90
2022-12-03T15:20:14.770Z,0.90
2022-12-03T15:25:50.947Z,0.80
2022-12-03T15:31:33.346Z,0.90
2022-12-03T15:34:09.179Z,1.00
2022-12-03T15:37:04.709Z,0.90
2022-12-03T15:40:13.985Z,0.90
2022-12-03T15:43:16.861Z,0.90
2022-12-03T15:45:54.196Z,0.90
2022-12-03T15:48:42.468Z,0.90
2022-12-03T15:51:22.728Z,0.90
2022-12-03T15:54:04.137Z,0.90
2022-12-03T15:56:44.738Z,0.90
2022-12-03T15:59:32.603Z,0.90
2022-12-03T16:02:10.678Z,0.90
2022-12-03T16:04:45.500Z,0.90
2022-12-03T16:07:24.001Z,0.90
2022-12-03T16:10:05.335Z,0.90
2022-12-03T16:12:43.798Z,0.90
2022-12-03T16:15:27.444Z,1.00
2022-12-03T16:18:25.330Z,0.90
2022-12-03T16:21:14.468Z,0.90
2022-12-03T16:24:08.008Z,0.90
2022-12-03T16:26:53.728Z,0.80
2022-12-03T16:29:33.417Z,0.80
2022-12-03T16:38:13.870Z,0.80
2022-12-03T16:40:57.534Z,0.80
2022-12-03T16:43:35.561Z,0.80
2022-12-03T16:46:19.798Z,0.80
2022-12-03T16:49:11.817Z,0.80
2022-12-03T16:52:19.560Z,0.80
2022-12-03T16:57:47.575Z,0.80
2022-12-03T17:00:42.372Z,0.70
2022-12-03T17:03:17.189Z,0.70
2022-12-03T17:06:12.919Z,0.70
2022-12-03T17:11:51.152Z,0.70
2022-12-03T17:14:37.717Z,0.70
2022-12-03T17:17:56.207Z,0.80
2022-12-03T17:20:40.185Z,0.80
2022-12-03T17:23:15.092Z,0.70
2022-12-03T17:26:20.678Z,0.80
2022-12-03T17:29:01.078Z,0.80
2022-12-03T17:31:34.655Z,0.80
2022-12-03T17:34:11.508Z,0.70
2022-12-03T17:36:48.809Z,0.70
2022-12-03T17:39:22.203Z,0.80
2022-12-03T17:42:06.354Z,0.70
2022-12-03T17:44:38.727Z,0.70
2022-12-03T17:47:13.750Z,0.80
2022-12-03T17:49:48.646Z,0.80
2022-12-03T17:52:22.448Z,0.80
2022-12-03T17:55:33.543Z,0.80
2022-12-03T17:58:05.937Z,0.80
2022-12-03T18:03:37.978Z,0.90
2022-12-03T18:06:22.067Z,0.90
2022-12-03T18:09:00.448Z,0.90
2022-12-03T18:11:43.328Z,0.90
2022-12-03T18:14:15.647Z,0.90
2022-12-03T18:17:01.350Z,0.90
2022-12-03T18:19:41.574Z,0.90
2022-12-03T18:22:24.751Z,0.90
2022-12-03T18:24:56.804Z,0.80
2022-12-03T18:28:07.830Z,0.90
2022-12-03T18:30:47.682Z,0.90
2022-12-03T18:36:45.832Z,0.90
2022-12-03T18:39:38.524Z,0.90
2022-12-03T18:42:18.183Z,0.90
2022-12-03T18:44:55.469Z,1.00
2022-12-03T18:47:33.670Z,0.90
2022-12-03T18:53:21.880Z,0.90
2022-12-03T18:55:58.556Z,1.00
2022-12-03T18:58:31.167Z,0.90
2022-12-03T19:01:10.685Z,0.90
2022-12-03T19:03:46.058Z,0.90
2022-12-03T19:06:42.417Z,0.90
2022-12-03T19:09:38.883Z,1.00
2022-12-03T19:12:14.388Z,1.00
2022-12-03T19:15:11.268Z,1.00
2022-12-03T19:21:00.169Z,1.00
2022-12-03T19:24:09.894Z,1.00
2022-12-03T19:26:50.250Z,0.90
2022-12-03T19:29:26.729Z,0.90
2022-12-03T19:32:22.220Z,0.90
2022-12-03T19:34:54.283Z,0.90
2022-12-03T19:37:38.917Z,0.90
2022-12-03T19:40:33.886Z,0.90
2022-12-03T19:43:05.224Z,0.90
2022-12-03T19:46:02.537Z,0.90
2022-12-03T19:48:47.356Z,0.90
2022-12-03T19:51:43.428Z,0.90
2022-12-03T19:54:22.164Z,1.00
2022-12-03T19:57:28.225Z,1.00
2022-12-03T20:00:11.138Z,0.90
2022-12-03T20:05:53.214Z,0.90
2022-12-03T20:08:35.574Z,0.90
2022-12-03T20:11:26.952Z,0.90
2022-12-03T20:14:02.744Z,0.90
2022-12-03T20:23:02.230Z,0.90
2022-12-03T20:25:42.795Z,0.90
2022-12-03T20:31:18.171Z,0.90
2022-12-03T20:33:55.987Z,0.90
2022-12-03T20:36:38.593Z,0.90
2022-12-03T20:39:19.910Z,1.40
2022-12-03T20:44:48.341Z,0.90
2022-12-03T20:47:31.454Z,0.90
2022-12-03T20:50:02.765Z,0.90
2022-12-03T20:53:09.445Z,0.90
2022-12-03T20:55:37.325Z,1.10
2022-12-03T20:58:07.555Z,0.90
2022-12-03T21:00:37.384Z,0.90
2022-12-03T21:03:29.315Z,0.90
2022-12-03T21:06:17.137Z,0.90
2022-12-03T21:08:58.408Z,0.90
2022-12-03T21:11:33.430Z,1.00
2022-12-03T21:14:09.597Z,0.90
2022-12-03T21:19:27.652Z,1.20
2022-12-03T21:22:15.217Z,1.00
2022-12-03T21:25:10.660Z,1.10
2022-12-03T21:33:27.063Z,1.10
2022-12-03T21:35:58.884Z,1.10
2022-12-03T21:42:34.559Z,1.00
2022-12-03T21:45:17.472Z,1.00
2022-12-03T21:47:50.858Z,1.00
2022-12-03T21:50:38.465Z,1.00
2022-12-03T21:56:26.518Z,1.40
2022-12-03T21:59:03.073Z,1.00
2022-12-03T22:01:36.339Z,1.00
2022-12-03T22:04:22.104Z,1.00
2022-12-03T22:06:51.966Z,1.10
2022-12-03T22:09:26.896Z,1.30
2022-12-03T22:12:03.318Z,1.00
2022-12-03T22:14:42.337Z,1.10
2022-12-03T22:20:51.290Z,1.10
2022-12-03T22:23:43.716Z,1.10
2022-12-03T22:26:30.232Z,1.10
2022-12-03T22:29:15.315Z,1.10
2022-12-03T22:31:52.382Z,1.10
2022-12-03T22:34:36.369Z,1.10
2022-12-03T22:37:06.030Z,1.10
2022-12-03T22:39:38.719Z,1.10
2022-12-03T22:42:25.209Z,1.10
2022-12-03T22:48:02.926Z,1.10
2022-12-03T22:50:39.380Z,1.10
2022-12-03T22:53:12.553Z,1.10
2022-12-03T22:55:56.322Z,1.10
2022-12-03T22:58:30.597Z,1.10
2022-12-03T23:04:07.934Z,1.10
2022-12-03T23:07:05.967Z,1.20
2022-12-03T23:09:49.112Z,1.20
2022-12-03T23:12:24.076Z,1.20
2022-12-03T23:15:10.480Z,1.20
2022-12-03T23:17:42.400Z,1.10
2022-12-03T23:23:17.780Z,1.10
2022-12-03T23:26:03.822Z,1.20
2022-12-03T23:29:25.834Z,1.20
2022-12-03T23:31:58.677Z,1.20
2022-12-03T23:37:30.040Z,1.20
2022-12-03T23:40:01.330Z,1.20
2022-12-03T23:42:48.649Z,1.20
2022-12-03T23:45:17.618Z,1.20
2022-12-03T23:47:56.603Z,1.20
2022-12-03T23:50:28.084Z,1.20
2022-12-03T23:53:00.031Z,1.20
2022-12-03T23:55:56.956Z,1.30
